sensor_id;sensor_type;location;lat;lon;timestamp;P1;durP1;ratioP1;P2;durP2;ratioP2
11191;SDS011;5652;48.406;10.820;2023-03-03T00:00:55;105.20;;;48.65;;
11191;SDS011;5652;48.406;10.820;2023-03-03T00:03:22;108.35;;;50.05;;
11191;SDS011;5652;48.406;10.820;2023-03-03T00:05:51;115.00;;;52.20;;
11191;SDS011;5652;48.406;10.820;2023-03-03T00:08:19;124.47;;;54.95;;
11191;SDS011;5652;48.406;10.820;2023-03-03T00:10:48;116.45;;;52.88;;
11191;SDS011;5652;48.406;10.820;2023-03-03T00:13:15;116.90;;;52.90;;
11191;SDS011;5652;48.406;10.820;2023-03-03T00:15:43;114.80;;;51.97;;
11191;SDS011;5652;48.406;10.820;2023-03-03T00:18:16;116.55;;;52.75;;
11191;SDS011;5652;48.406;10.820;2023-03-03T00:20:46;118.65;;;53.22;;
11191;SDS011;5652;48.406;10.820;2023-03-03T00:23:19;130.98;;;53.90;;
11191;SDS011;5652;48.406;10.820;2023-03-03T00:25:48;123.22;;;55.13;;
11191;SDS011;5652;48.406;10.820;2023-03-03T00:28:18;125.05;;;55.55;;
11191;SDS011;5652;48.406;10.820;2023-03-03T00:30:47;122.57;;;54.47;;
11191;SDS011;5652;48.406;10.820;2023-03-03T00:33:18;124.05;;;54.72;;
11191;SDS011;5652;48.406;10.820;2023-03-03T00:35:45;119.45;;;52.70;;
11191;SDS011;5652;48.406;10.820;2023-03-03T00:38:13;119.60;;;52.97;;
11191;SDS011;5652;48.406;10.820;2023-03-03T00:40:42;116.70;;;52.80;;
11191;SDS011;5652;48.406;10.820;2023-03-03T00:43:16;116.10;;;52.70;;
11191;SDS011;5652;48.406;10.820;2023-03-03T00:45:44;109.53;;;51.53;;
11191;SDS011;5652;48.406;10.820;2023-03-03T00:48:18;108.18;;;51.13;;
11191;SDS011;5652;48.406;10.820;2023-03-03T00:50:46;111.03;;;50.45;;
11191;SDS011;5652;48.406;10.820;2023-03-03T00:53:15;109.15;;;50.83;;
11191;SDS011;5652;48.406;10.820;2023-03-03T00:55:43;107.18;;;50.35;;
11191;SDS011;5652;48.406;10.820;2023-03-03T00:58:10;112.72;;;51.80;;
11191;SDS011;5652;48.406;10.820;2023-03-03T01:00:39;114.10;;;52.33;;
11191;SDS011;5652;48.406;10.820;2023-03-03T01:03:07;118.73;;;52.70;;
11191;SDS011;5652;48.406;10.820;2023-03-03T01:05:35;126.78;;;53.22;;
11191;SDS011;5652;48.406;10.820;2023-03-03T01:08:02;125.57;;;55.17;;
11191;SDS011;5652;48.406;10.820;2023-03-03T01:10:30;130.70;;;54.78;;
11191;SDS011;5652;48.406;10.820;2023-03-03T01:12:57;130.32;;;56.22;;
11191;SDS011;5652;48.406;10.820;2023-03-03T01:15:24;152.70;;;63.80;;
11191;SDS011;5652;48.406;10.820;2023-03-03T01:17:53;131.32;;;57.92;;
11191;SDS011;5652;48.406;10.820;2023-03-03T01:20:20;132.30;;;56.30;;
11191;SDS011;5652;48.406;10.820;2023-03-03T01:22:47;130.10;;;56.40;;
11191;SDS011;5652;48.406;10.820;2023-03-03T01:25:14;128.57;;;54.78;;
11191;SDS011;5652;48.406;10.820;2023-03-03T01:27:42;128.07;;;55.88;;
11191;SDS011;5652;48.406;10.820;2023-03-03T01:30:09;124.43;;;53.15;;
11191;SDS011;5652;48.406;10.820;2023-03-03T01:32:36;125.20;;;54.63;;
11191;SDS011;5652;48.406;10.820;2023-03-03T01:35:05;126.75;;;55.60;;
11191;SDS011;5652;48.406;10.820;2023-03-03T01:37:33;129.68;;;55.53;;
11191;SDS011;5652;48.406;10.820;2023-03-03T01:40:00;128.68;;;55.70;;
11191;SDS011;5652;48.406;10.820;2023-03-03T01:42:27;130.80;;;56.22;;
11191;SDS011;5652;48.406;10.820;2023-03-03T01:45:12;128.75;;;55.58;;
11191;SDS011;5652;48.406;10.820;2023-03-03T01:47:40;127.03;;;56.13;;
11191;SDS011;5652;48.406;10.820;2023-03-03T01:50:10;120.43;;;54.88;;
11191;SDS011;5652;48.406;10.820;2023-03-03T01:52:38;119.10;;;53.78;;
11191;SDS011;5652;48.406;10.820;2023-03-03T01:55:07;114.07;;;51.28;;
11191;SDS011;5652;48.406;10.820;2023-03-03T01:57:36;122.85;;;53.70;;
11191;SDS011;5652;48.406;10.820;2023-03-03T02:00:05;122.20;;;53.67;;
11191;SDS011;5652;48.406;10.820;2023-03-03T02:02:32;130.20;;;55.58;;
11191;SDS011;5652;48.406;10.820;2023-03-03T02:05:00;126.33;;;54.10;;
11191;SDS011;5652;48.406;10.820;2023-03-03T02:07:29;131.55;;;56.75;;
11191;SDS011;5652;48.406;10.820;2023-03-03T02:09:58;136.35;;;57.72;;
11191;SDS011;5652;48.406;10.820;2023-03-03T02:12:27;133.98;;;57.13;;
11191;SDS011;5652;48.406;10.820;2023-03-03T02:14:57;130.70;;;55.75;;
11191;SDS011;5652;48.406;10.820;2023-03-03T02:17:24;126.93;;;56.92;;
11191;SDS011;5652;48.406;10.820;2023-03-03T02:19:53;125.57;;;55.20;;
11191;SDS011;5652;48.406;10.820;2023-03-03T02:22:23;121.05;;;55.30;;
11191;SDS011;5652;48.406;10.820;2023-03-03T02:24:55;121.18;;;54.75;;
11191;SDS011;5652;48.406;10.820;2023-03-03T02:27:25;119.28;;;54.20;;
11191;SDS011;5652;48.406;10.820;2023-03-03T02:29:52;125.72;;;54.88;;
11191;SDS011;5652;48.406;10.820;2023-03-03T02:32:19;119.68;;;55.83;;
11191;SDS011;5652;48.406;10.820;2023-03-03T02:34:47;127.80;;;55.88;;
11191;SDS011;5652;48.406;10.820;2023-03-03T02:37:14;127.32;;;56.13;;
11191;SDS011;5652;48.406;10.820;2023-03-03T02:39:41;125.27;;;55.17;;
11191;SDS011;5652;48.406;10.820;2023-03-03T02:42:10;131.88;;;55.97;;
11191;SDS011;5652;48.406;10.820;2023-03-03T02:44:39;137.10;;;57.35;;
11191;SDS011;5652;48.406;10.820;2023-03-03T02:47:07;130.10;;;56.42;;
11191;SDS011;5652;48.406;10.820;2023-03-03T02:49:35;131.48;;;55.17;;
11191;SDS011;5652;48.406;10.820;2023-03-03T02:52:03;141.23;;;57.85;;
11191;SDS011;5652;48.406;10.820;2023-03-03T02:54:31;143.25;;;58.70;;
11191;SDS011;5652;48.406;10.820;2023-03-03T02:56:58;139.10;;;59.03;;
11191;SDS011;5652;48.406;10.820;2023-03-03T02:59:25;138.82;;;57.70;;
11191;SDS011;5652;48.406;10.820;2023-03-03T03:01:54;142.47;;;57.73;;
11191;SDS011;5652;48.406;10.820;2023-03-03T03:04:21;134.07;;;55.65;;
11191;SDS011;5652;48.406;10.820;2023-03-03T03:06:49;134.98;;;56.97;;
11191;SDS011;5652;48.406;10.820;2023-03-03T03:09:16;132.10;;;56.10;;
11191;SDS011;5652;48.406;10.820;2023-03-03T03:11:44;128.15;;;55.67;;
11191;SDS011;5652;48.406;10.820;2023-03-03T03:14:11;135.85;;;55.65;;
11191;SDS011;5652;48.406;10.820;2023-03-03T03:16:39;140.40;;;57.47;;
11191;SDS011;5652;48.406;10.820;2023-03-03T03:19:08;136.82;;;57.03;;
11191;SDS011;5652;48.406;10.820;2023-03-03T03:21:35;142.43;;;57.35;;
11191;SDS011;5652;48.406;10.820;2023-03-03T03:24:02;132.80;;;55.10;;
11191;SDS011;5652;48.406;10.820;2023-03-03T03:26:29;133.80;;;56.10;;
11191;SDS011;5652;48.406;10.820;2023-03-03T03:28:56;138.52;;;57.92;;
11191;SDS011;5652;48.406;10.820;2023-03-03T03:31:23;134.73;;;56.33;;
11191;SDS011;5652;48.406;10.820;2023-03-03T03:33:50;129.07;;;54.20;;
11191;SDS011;5652;48.406;10.820;2023-03-03T03:36:19;127.85;;;53.20;;
11191;SDS011;5652;48.406;10.820;2023-03-03T03:38:46;127.57;;;54.47;;
11191;SDS011;5652;48.406;10.820;2023-03-03T03:41:13;127.30;;;53.47;;
11191;SDS011;5652;48.406;10.820;2023-03-03T03:43:40;126.47;;;53.80;;
11191;SDS011;5652;48.406;10.820;2023-03-03T03:46:07;127.63;;;54.67;;
11191;SDS011;5652;48.406;10.820;2023-03-03T03:48:34;127.95;;;54.65;;
11191;SDS011;5652;48.406;10.820;2023-03-03T03:51:02;129.65;;;54.70;;
11191;SDS011;5652;48.406;10.820;2023-03-03T03:53:30;129.75;;;55.72;;
11191;SDS011;5652;48.406;10.820;2023-03-03T03:55:57;121.82;;;55.35;;
11191;SDS011;5652;48.406;10.820;2023-03-03T03:58:24;123.20;;;54.40;;
11191;SDS011;5652;48.406;10.820;2023-03-03T04:00:52;121.20;;;54.35;;
11191;SDS011;5652;48.406;10.820;2023-03-03T04:03:19;112.60;;;51.95;;
11191;SDS011;5652;48.406;10.820;2023-03-03T04:05:47;111.55;;;52.60;;
11191;SDS011;5652;48.406;10.820;2023-03-03T04:08:15;111.07;;;51.60;;
11191;SDS011;5652;48.406;10.820;2023-03-03T04:10:43;106.97;;;49.70;;
11191;SDS011;5652;48.406;10.820;2023-03-03T04:13:10;99.75;;;49.25;;
11191;SDS011;5652;48.406;10.820;2023-03-03T04:15:37;99.35;;;48.45;;
11191;SDS011;5652;48.406;10.820;2023-03-03T04:18:04;103.68;;;49.55;;
11191;SDS011;5652;48.406;10.820;2023-03-03T04:20:31;107.13;;;49.55;;
11191;SDS011;5652;48.406;10.820;2023-03-03T04:22:58;106.22;;;49.90;;
11191;SDS011;5652;48.406;10.820;2023-03-03T04:25:25;99.78;;;49.53;;
11191;SDS011;5652;48.406;10.820;2023-03-03T04:27:54;102.35;;;49.47;;
11191;SDS011;5652;48.406;10.820;2023-03-03T04:30:21;100.95;;;49.30;;
11191;SDS011;5652;48.406;10.820;2023-03-03T04:32:48;101.05;;;49.75;;
11191;SDS011;5652;48.406;10.820;2023-03-03T04:35:17;97.67;;;48.60;;
11191;SDS011;5652;48.406;10.820;2023-03-03T04:37:44;92.25;;;47.17;;
11191;SDS011;5652;48.406;10.820;2023-03-03T04:40:11;95.65;;;48.55;;
11191;SDS011;5652;48.406;10.820;2023-03-03T04:42:38;95.38;;;48.05;;
11191;SDS011;5652;48.406;10.820;2023-03-03T04:45:07;92.80;;;46.83;;
11191;SDS011;5652;48.406;10.820;2023-03-03T04:47:34;93.60;;;46.65;;
11191;SDS011;5652;48.406;10.820;2023-03-03T04:50:02;93.82;;;47.92;;
11191;SDS011;5652;48.406;10.820;2023-03-03T04:52:29;92.28;;;47.85;;
11191;SDS011;5652;48.406;10.820;2023-03-03T04:54:56;96.50;;;48.67;;
11191;SDS011;5652;48.406;10.820;2023-03-03T04:57:23;98.35;;;48.65;;
11191;SDS011;5652;48.406;10.820;2023-03-03T04:59:50;93.15;;;47.53;;
11191;SDS011;5652;48.406;10.820;2023-03-03T05:02:18;92.60;;;47.28;;
11191;SDS011;5652;48.406;10.820;2023-03-03T05:04:45;94.88;;;47.53;;
11191;SDS011;5652;48.406;10.820;2023-03-03T05:07:13;96.07;;;47.72;;
11191;SDS011;5652;48.406;10.820;2023-03-03T05:09:40;94.68;;;47.05;;
11191;SDS011;5652;48.406;10.820;2023-03-03T05:12:07;97.40;;;47.87;;
11191;SDS011;5652;48.406;10.820;2023-03-03T05:14:34;92.13;;;47.25;;
11191;SDS011;5652;48.406;10.820;2023-03-03T05:17:01;93.17;;;46.93;;
11191;SDS011;5652;48.406;10.820;2023-03-03T05:19:30;99.20;;;49.75;;
11191;SDS011;5652;48.406;10.820;2023-03-03T05:21:58;104.47;;;53.10;;
11191;SDS011;5652;48.406;10.820;2023-03-03T05:24:26;97.43;;;49.83;;
11191;SDS011;5652;48.406;10.820;2023-03-03T05:26:53;91.55;;;47.28;;
11191;SDS011;5652;48.406;10.820;2023-03-03T05:29:20;89.85;;;47.08;;
11191;SDS011;5652;48.406;10.820;2023-03-03T05:31:48;88.00;;;45.80;;
11191;SDS011;5652;48.406;10.820;2023-03-03T05:34:15;87.30;;;46.65;;
11191;SDS011;5652;48.406;10.820;2023-03-03T05:36:44;85.35;;;45.05;;
11191;SDS011;5652;48.406;10.820;2023-03-03T05:39:11;87.97;;;45.88;;
11191;SDS011;5652;48.406;10.820;2023-03-03T05:41:38;88.05;;;46.40;;
11191;SDS011;5652;48.406;10.820;2023-03-03T05:44:06;85.43;;;45.23;;
11191;SDS011;5652;48.406;10.820;2023-03-03T05:46:33;81.80;;;45.33;;
11191;SDS011;5652;48.406;10.820;2023-03-03T05:49:00;82.03;;;44.23;;
11191;SDS011;5652;48.406;10.820;2023-03-03T05:51:27;84.18;;;44.65;;
11191;SDS011;5652;48.406;10.820;2023-03-03T05:53:55;83.85;;;46.10;;
11191;SDS011;5652;48.406;10.820;2023-03-03T05:56:23;84.28;;;46.20;;
11191;SDS011;5652;48.406;10.820;2023-03-03T05:58:50;86.88;;;45.38;;
11191;SDS011;5652;48.406;10.820;2023-03-03T06:01:17;84.25;;;44.75;;
11191;SDS011;5652;48.406;10.820;2023-03-03T06:03:44;100.43;;;50.10;;
11191;SDS011;5652;48.406;10.820;2023-03-03T06:06:11;91.40;;;47.92;;
11191;SDS011;5652;48.406;10.820;2023-03-03T06:08:41;82.65;;;45.65;;
11191;SDS011;5652;48.406;10.820;2023-03-03T06:11:09;89.13;;;46.60;;
11191;SDS011;5652;48.406;10.820;2023-03-03T06:13:37;84.63;;;46.80;;
11191;SDS011;5652;48.406;10.820;2023-03-03T06:16:05;82.30;;;44.28;;
11191;SDS011;5652;48.406;10.820;2023-03-03T06:18:32;80.80;;;45.10;;
11191;SDS011;5652;48.406;10.820;2023-03-03T06:21:00;83.60;;;44.03;;
11191;SDS011;5652;48.406;10.820;2023-03-03T06:23:27;81.55;;;46.25;;
11191;SDS011;5652;48.406;10.820;2023-03-03T06:25:54;81.47;;;45.00;;
11191;SDS011;5652;48.406;10.820;2023-03-03T06:28:22;85.47;;;45.90;;
11191;SDS011;5652;48.406;10.820;2023-03-03T06:30:51;85.97;;;46.42;;
11191;SDS011;5652;48.406;10.820;2023-03-03T06:33:19;87.70;;;46.15;;
11191;SDS011;5652;48.406;10.820;2023-03-03T06:35:48;88.68;;;46.55;;
11191;SDS011;5652;48.406;10.820;2023-03-03T06:38:15;85.95;;;45.50;;
11191;SDS011;5652;48.406;10.820;2023-03-03T06:40:42;85.72;;;46.13;;
11191;SDS011;5652;48.406;10.820;2023-03-03T06:43:09;82.95;;;45.38;;
11191;SDS011;5652;48.406;10.820;2023-03-03T06:45:37;87.65;;;46.70;;
11191;SDS011;5652;48.406;10.820;2023-03-03T06:48:05;87.47;;;45.38;;
11191;SDS011;5652;48.406;10.820;2023-03-03T06:50:32;82.35;;;46.55;;
11191;SDS011;5652;48.406;10.820;2023-03-03T06:53:01;78.40;;;45.17;;
11191;SDS011;5652;48.406;10.820;2023-03-03T06:55:28;81.75;;;46.22;;
11191;SDS011;5652;48.406;10.820;2023-03-03T06:57:55;81.63;;;44.25;;
11191;SDS011;5652;48.406;10.820;2023-03-03T07:00:23;77.50;;;44.45;;
11191;SDS011;5652;48.406;10.820;2023-03-03T07:02:55;80.00;;;43.85;;
11191;SDS011;5652;48.406;10.820;2023-03-03T07:05:23;79.63;;;43.38;;
11191;SDS011;5652;48.406;10.820;2023-03-03T07:07:52;75.25;;;43.25;;
11191;SDS011;5652;48.406;10.820;2023-03-03T07:10:21;77.55;;;43.25;;
11191;SDS011;5652;48.406;10.820;2023-03-03T07:12:48;75.05;;;42.65;;
11191;SDS011;5652;48.406;10.820;2023-03-03T07:15:16;73.97;;;42.20;;
11191;SDS011;5652;48.406;10.820;2023-03-03T07:17:44;75.07;;;42.58;;
11191;SDS011;5652;48.406;10.820;2023-03-03T07:20:16;79.45;;;43.78;;
11191;SDS011;5652;48.406;10.820;2023-03-03T07:22:44;74.63;;;42.88;;
11191;SDS011;5652;48.406;10.820;2023-03-03T07:25:17;78.82;;;43.05;;
11191;SDS011;5652;48.406;10.820;2023-03-03T07:27:45;75.80;;;43.10;;
11191;SDS011;5652;48.406;10.820;2023-03-03T07:30:16;78.90;;;43.87;;
11191;SDS011;5652;48.406;10.820;2023-03-03T07:32:45;78.40;;;44.37;;
11191;SDS011;5652;48.406;10.820;2023-03-03T07:35:23;76.57;;;44.83;;
11191;SDS011;5652;48.406;10.820;2023-03-03T07:37:53;78.53;;;44.00;;
11191;SDS011;5652;48.406;10.820;2023-03-03T07:40:25;76.55;;;43.70;;
11191;SDS011;5652;48.406;10.820;2023-03-03T07:42:53;78.17;;;43.00;;
11191;SDS011;5652;48.406;10.820;2023-03-03T07:45:22;78.82;;;44.95;;
11191;SDS011;5652;48.406;10.820;2023-03-03T07:47:51;88.68;;;49.53;;
11191;SDS011;5652;48.406;10.820;2023-03-03T07:50:19;81.75;;;47.67;;
11191;SDS011;5652;48.406;10.820;2023-03-03T07:52:51;80.07;;;45.08;;
11191;SDS011;5652;48.406;10.820;2023-03-03T07:55:22;78.80;;;44.53;;
11191;SDS011;5652;48.406;10.820;2023-03-03T07:57:52;75.35;;;43.80;;
11191;SDS011;5652;48.406;10.820;2023-03-03T08:03:08;69.93;;;42.47;;
11191;SDS011;5652;48.406;10.820;2023-03-03T08:05:37;76.00;;;43.83;;
11191;SDS011;5652;48.406;10.820;2023-03-03T08:08:20;70.90;;;42.88;;
11191;SDS011;5652;48.406;10.820;2023-03-03T08:10:49;70.40;;;42.50;;
11191;SDS011;5652;48.406;10.820;2023-03-03T08:13:17;72.20;;;42.75;;
11191;SDS011;5652;48.406;10.820;2023-03-03T08:15:45;72.05;;;43.03;;
11191;SDS011;5652;48.406;10.820;2023-03-03T08:18:18;70.72;;;43.03;;
11191;SDS011;5652;48.406;10.820;2023-03-03T08:20:47;68.32;;;40.75;;
11191;SDS011;5652;48.406;10.820;2023-03-03T08:23:15;67.93;;;41.03;;
11191;SDS011;5652;48.406;10.820;2023-03-03T08:25:44;67.65;;;42.15;;
11191;SDS011;5652;48.406;10.820;2023-03-03T08:28:11;68.70;;;41.50;;
11191;SDS011;5652;48.406;10.820;2023-03-03T08:30:39;66.63;;;40.33;;
11191;SDS011;5652;48.406;10.820;2023-03-03T08:33:06;68.60;;;41.20;;
11191;SDS011;5652;48.406;10.820;2023-03-03T08:35:33;65.82;;;40.05;;
11191;SDS011;5652;48.406;10.820;2023-03-03T08:38:00;62.72;;;38.22;;
11191;SDS011;5652;48.406;10.820;2023-03-03T08:40:28;59.10;;;36.15;;
11191;SDS011;5652;48.406;10.820;2023-03-03T08:42:56;51.13;;;32.37;;
11191;SDS011;5652;48.406;10.820;2023-03-03T08:45:23;45.97;;;26.42;;
11191;SDS011;5652;48.406;10.820;2023-03-03T08:47:51;42.42;;;24.95;;
11191;SDS011;5652;48.406;10.820;2023-03-03T08:50:19;43.80;;;23.40;;
11191;SDS011;5652;48.406;10.820;2023-03-03T08:52:46;38.53;;;23.25;;
11191;SDS011;5652;48.406;10.820;2023-03-03T08:55:13;37.55;;;23.48;;
11191;SDS011;5652;48.406;10.820;2023-03-03T08:57:40;37.17;;;23.10;;
11191;SDS011;5652;48.406;10.820;2023-03-03T09:00:10;36.92;;;19.10;;
11191;SDS011;5652;48.406;10.820;2023-03-03T09:02:38;35.42;;;20.00;;
11191;SDS011;5652;48.406;10.820;2023-03-03T09:05:05;38.25;;;20.77;;
11191;SDS011;5652;48.406;10.820;2023-03-03T09:07:33;35.23;;;19.77;;
11191;SDS011;5652;48.406;10.820;2023-03-03T09:10:00;37.08;;;21.40;;
11191;SDS011;5652;48.406;10.820;2023-03-03T09:12:28;35.05;;;19.40;;
11191;SDS011;5652;48.406;10.820;2023-03-03T09:14:57;34.20;;;19.83;;
11191;SDS011;5652;48.406;10.820;2023-03-03T09:17:28;36.08;;;19.50;;
11191;SDS011;5652;48.406;10.820;2023-03-03T09:19:57;35.50;;;19.95;;
11191;SDS011;5652;48.406;10.820;2023-03-03T09:22:26;37.50;;;20.00;;
11191;SDS011;5652;48.406;10.820;2023-03-03T09:24:55;38.88;;;20.30;;
11191;SDS011;5652;48.406;10.820;2023-03-03T09:27:25;38.35;;;20.27;;
11191;SDS011;5652;48.406;10.820;2023-03-03T09:29:53;35.22;;;19.90;;
11191;SDS011;5652;48.406;10.820;2023-03-03T09:32:30;36.67;;;20.52;;
11191;SDS011;5652;48.406;10.820;2023-03-03T09:35:00;39.92;;;21.08;;
11191;SDS011;5652;48.406;10.820;2023-03-03T09:37:49;35.60;;;20.10;;
11191;SDS011;5652;48.406;10.820;2023-03-03T09:40:25;35.20;;;19.17;;
11191;SDS011;5652;48.406;10.820;2023-03-03T09:43:01;35.83;;;20.87;;
11191;SDS011;5652;48.406;10.820;2023-03-03T09:45:34;35.40;;;19.77;;
11191;SDS011;5652;48.406;10.820;2023-03-03T09:48:16;34.72;;;18.55;;
11191;SDS011;5652;48.406;10.820;2023-03-03T09:50:51;33.97;;;19.17;;
11191;SDS011;5652;48.406;10.820;2023-03-03T09:53:27;33.25;;;18.67;;
11191;SDS011;5652;48.406;10.820;2023-03-03T09:55:58;33.07;;;18.40;;
11191;SDS011;5652;48.406;10.820;2023-03-03T09:58:32;35.50;;;18.77;;
11191;SDS011;5652;48.406;10.820;2023-03-03T10:01:09;39.15;;;19.85;;
11191;SDS011;5652;48.406;10.820;2023-03-03T10:03:51;34.50;;;19.50;;
11191;SDS011;5652;48.406;10.820;2023-03-03T10:06:42;33.97;;;19.10;;
11191;SDS011;5652;48.406;10.820;2023-03-03T10:09:31;30.52;;;18.63;;
11191;SDS011;5652;48.406;10.820;2023-03-03T10:12:01;32.05;;;19.20;;
11191;SDS011;5652;48.406;10.820;2023-03-03T10:14:36;32.95;;;19.00;;
11191;SDS011;5652;48.406;10.820;2023-03-03T10:17:08;31.67;;;19.83;;
11191;SDS011;5652;48.406;10.820;2023-03-03T10:19:39;32.63;;;20.17;;
11191;SDS011;5652;48.406;10.820;2023-03-03T10:22:18;33.80;;;20.75;;
11191;SDS011;5652;48.406;10.820;2023-03-03T10:25:01;34.33;;;19.35;;
11191;SDS011;5652;48.406;10.820;2023-03-03T10:27:35;33.00;;;19.33;;
11191;SDS011;5652;48.406;10.820;2023-03-03T10:30:06;33.38;;;19.45;;
11191;SDS011;5652;48.406;10.820;2023-03-03T10:32:38;31.10;;;18.10;;
11191;SDS011;5652;48.406;10.820;2023-03-03T10:35:15;30.85;;;18.55;;
11191;SDS011;5652;48.406;10.820;2023-03-03T10:37:49;32.38;;;19.35;;
11191;SDS011;5652;48.406;10.820;2023-03-03T10:40:21;33.28;;;18.52;;
11191;SDS011;5652;48.406;10.820;2023-03-03T10:43:11;32.20;;;18.75;;
11191;SDS011;5652;48.406;10.820;2023-03-03T10:45:47;35.50;;;20.08;;
11191;SDS011;5652;48.406;10.820;2023-03-03T10:51:12;33.63;;;18.63;;
11191;SDS011;5652;48.406;10.820;2023-03-03T10:53:47;36.80;;;19.60;;
11191;SDS011;5652;48.406;10.820;2023-03-03T10:56:21;33.75;;;19.55;;
11191;SDS011;5652;48.406;10.820;2023-03-03T10:58:53;33.75;;;18.73;;
11191;SDS011;5652;48.406;10.820;2023-03-03T11:01:26;31.98;;;18.65;;
11191;SDS011;5652;48.406;10.820;2023-03-03T11:06:42;31.13;;;19.03;;
11191;SDS011;5652;48.406;10.820;2023-03-03T11:09:14;30.10;;;18.65;;
11191;SDS011;5652;48.406;10.820;2023-03-03T11:11:44;30.00;;;18.88;;
11191;SDS011;5652;48.406;10.820;2023-03-03T11:14:16;35.15;;;19.58;;
11191;SDS011;5652;48.406;10.820;2023-03-03T11:16:49;33.40;;;18.15;;
11191;SDS011;5652;48.406;10.820;2023-03-03T11:19:32;35.70;;;19.90;;
11191;SDS011;5652;48.406;10.820;2023-03-03T11:22:03;33.08;;;18.45;;
11191;SDS011;5652;48.406;10.820;2023-03-03T11:24:38;30.92;;;18.30;;
11191;SDS011;5652;48.406;10.820;2023-03-03T11:27:17;32.95;;;18.77;;
11191;SDS011;5652;48.406;10.820;2023-03-03T11:29:50;31.55;;;18.02;;
11191;SDS011;5652;48.406;10.820;2023-03-03T11:32:24;30.85;;;18.42;;
11191;SDS011;5652;48.406;10.820;2023-03-03T11:34:55;31.75;;;18.13;;
11191;SDS011;5652;48.406;10.820;2023-03-03T11:37:25;27.55;;;17.17;;
11191;SDS011;5652;48.406;10.820;2023-03-03T11:39:56;29.67;;;17.83;;
11191;SDS011;5652;48.406;10.820;2023-03-03T11:42:26;30.63;;;17.88;;
11191;SDS011;5652;48.406;10.820;2023-03-03T11:44:54;30.88;;;17.13;;
11191;SDS011;5652;48.406;10.820;2023-03-03T11:47:23;30.10;;;17.77;;
11191;SDS011;5652;48.406;10.820;2023-03-03T11:49:52;29.65;;;17.15;;
11191;SDS011;5652;48.406;10.820;2023-03-03T11:52:23;30.10;;;17.73;;
11191;SDS011;5652;48.406;10.820;2023-03-03T11:54:53;29.88;;;17.25;;
11191;SDS011;5652;48.406;10.820;2023-03-03T11:57:25;30.48;;;16.85;;
11191;SDS011;5652;48.406;10.820;2023-03-03T11:59:58;28.75;;;17.70;;
11191;SDS011;5652;48.406;10.820;2023-03-03T12:02:33;28.60;;;17.83;;
11191;SDS011;5652;48.406;10.820;2023-03-03T12:05:08;28.00;;;17.10;;
11191;SDS011;5652;48.406;10.820;2023-03-03T12:07:40;30.42;;;17.05;;
11191;SDS011;5652;48.406;10.820;2023-03-03T12:10:14;30.15;;;17.23;;
11191;SDS011;5652;48.406;10.820;2023-03-03T12:12:46;28.20;;;17.25;;
11191;SDS011;5652;48.406;10.820;2023-03-03T12:15:18;32.55;;;17.75;;
11191;SDS011;5652;48.406;10.820;2023-03-03T12:18:00;27.08;;;16.48;;
11191;SDS011;5652;48.406;10.820;2023-03-03T12:20:33;28.27;;;16.63;;
11191;SDS011;5652;48.406;10.820;2023-03-03T12:23:10;26.65;;;17.30;;
11191;SDS011;5652;48.406;10.820;2023-03-03T12:25:39;28.33;;;17.38;;
11191;SDS011;5652;48.406;10.820;2023-03-03T12:28:10;29.50;;;17.53;;
11191;SDS011;5652;48.406;10.820;2023-03-03T12:30:47;29.25;;;17.75;;
11191;SDS011;5652;48.406;10.820;2023-03-03T12:33:18;29.42;;;18.50;;
11191;SDS011;5652;48.406;10.820;2023-03-03T12:35:49;28.47;;;18.47;;
11191;SDS011;5652;48.406;10.820;2023-03-03T12:38:20;28.90;;;18.47;;
11191;SDS011;5652;48.406;10.820;2023-03-03T12:40:50;27.92;;;17.85;;
11191;SDS011;5652;48.406;10.820;2023-03-03T12:43:27;29.02;;;18.65;;
11191;SDS011;5652;48.406;10.820;2023-03-03T12:45:57;24.87;;;17.90;;
11191;SDS011;5652;48.406;10.820;2023-03-03T12:48:27;28.48;;;18.90;;
11191;SDS011;5652;48.406;10.820;2023-03-03T12:51:03;27.70;;;18.30;;
11191;SDS011;5652;48.406;10.820;2023-03-03T12:56:24;24.80;;;18.17;;
11191;SDS011;5652;48.406;10.820;2023-03-03T12:58:55;26.45;;;18.23;;
11191;SDS011;5652;48.406;10.820;2023-03-03T13:01:29;29.60;;;18.93;;
11191;SDS011;5652;48.406;10.820;2023-03-03T13:04:02;27.88;;;17.75;;
11191;SDS011;5652;48.406;10.820;2023-03-03T13:06:31;27.33;;;17.77;;
11191;SDS011;5652;48.406;10.820;2023-03-03T13:09:01;29.35;;;18.58;;
11191;SDS011;5652;48.406;10.820;2023-03-03T13:11:45;28.95;;;18.08;;
11191;SDS011;5652;48.406;10.820;2023-03-03T13:14:19;25.90;;;18.30;;
11191;SDS011;5652;48.406;10.820;2023-03-03T13:16:52;27.30;;;17.90;;
11191;SDS011;5652;48.406;10.820;2023-03-03T13:19:26;26.00;;;17.47;;
11191;SDS011;5652;48.406;10.820;2023-03-03T13:21:57;25.10;;;17.30;;
11191;SDS011;5652;48.406;10.820;2023-03-03T13:24:28;27.92;;;18.48;;
11191;SDS011;5652;48.406;10.820;2023-03-03T13:26:57;26.73;;;18.15;;
11191;SDS011;5652;48.406;10.820;2023-03-03T13:29:28;25.67;;;18.00;;
11191;SDS011;5652;48.406;10.820;2023-03-03T13:31:58;28.00;;;18.35;;
11191;SDS011;5652;48.406;10.820;2023-03-03T13:34:33;24.23;;;17.67;;
11191;SDS011;5652;48.406;10.820;2023-03-03T13:37:04;28.48;;;18.33;;
11191;SDS011;5652;48.406;10.820;2023-03-03T13:39:36;25.80;;;16.70;;
11191;SDS011;5652;48.406;10.820;2023-03-03T13:42:05;24.45;;;17.48;;
11191;SDS011;5652;48.406;10.820;2023-03-03T13:44:37;26.52;;;17.20;;
11191;SDS011;5652;48.406;10.820;2023-03-03T13:47:09;28.45;;;17.50;;
11191;SDS011;5652;48.406;10.820;2023-03-03T13:49:42;26.10;;;16.88;;
11191;SDS011;5652;48.406;10.820;2023-03-03T13:52:10;25.13;;;16.45;;
11191;SDS011;5652;48.406;10.820;2023-03-03T13:57:24;22.80;;;15.88;;
11191;SDS011;5652;48.406;10.820;2023-03-03T13:59:58;23.30;;;16.65;;
11191;SDS011;5652;48.406;10.820;2023-03-03T14:02:46;23.75;;;16.27;;
11191;SDS011;5652;48.406;10.820;2023-03-03T14:05:16;22.73;;;15.90;;
11191;SDS011;5652;48.406;10.820;2023-03-03T14:07:48;23.13;;;15.80;;
11191;SDS011;5652;48.406;10.820;2023-03-03T14:10:18;22.45;;;15.80;;
11191;SDS011;5652;48.406;10.820;2023-03-03T14:12:48;22.80;;;16.02;;
11191;SDS011;5652;48.406;10.820;2023-03-03T14:15:20;23.80;;;16.33;;
11191;SDS011;5652;48.406;10.820;2023-03-03T14:17:54;23.33;;;16.10;;
11191;SDS011;5652;48.406;10.820;2023-03-03T14:20:23;22.77;;;15.75;;
11191;SDS011;5652;48.406;10.820;2023-03-03T14:22:51;23.77;;;16.95;;
11191;SDS011;5652;48.406;10.820;2023-03-03T14:25:19;25.63;;;17.05;;
11191;SDS011;5652;48.406;10.820;2023-03-03T14:27:57;22.73;;;14.27;;
11191;SDS011;5652;48.406;10.820;2023-03-03T14:30:35;23.45;;;15.18;;
11191;SDS011;5652;48.406;10.820;2023-03-03T14:33:17;29.33;;;15.70;;
11191;SDS011;5652;48.406;10.820;2023-03-03T14:35:47;25.27;;;16.10;;
11191;SDS011;5652;48.406;10.820;2023-03-03T14:38:16;20.98;;;14.88;;
11191;SDS011;5652;48.406;10.820;2023-03-03T14:40:44;24.02;;;16.27;;
11191;SDS011;5652;48.406;10.820;2023-03-03T14:43:18;30.23;;;17.13;;
11191;SDS011;5652;48.406;10.820;2023-03-03T14:45:47;26.58;;;16.27;;
11191;SDS011;5652;48.406;10.820;2023-03-03T14:48:15;26.80;;;17.23;;